Time;durP1;ratioP1;P1;durP2;ratioP2;P2;SDS_P1;SDS_P2;PMS_P1;PMS_P2;Temp;Humidity;BMP_temperature;BMP_pressure;BME280_temperature;BME280_humidity;BME280_pressure;Samples;Min_cycle;Max_cycle;Signal;HPM_P1;HPM_P2
2021/12/17 00:00:26;;;;;;;18.27;13.10;;;5.00;99.90;;;;;;4924371;29;20177;-70
2021/12/17 00:03:40;;;;;;;18.23;14.10;;;5.00;99.90;;;;;;4915547;29;20621;-70
2021/12/17 00:08:18;;;;;;;22.40;15.67;;;5.10;99.90;;;;;;4916623;29;20840;-68
2021/12/17 00:10:45;;;;;;;18.80;14.90;;;5.40;99.90;;;;;;4923816;29;20514;-67
2021/12/17 00:13:11;;;;;;;19.90;15.13;;;5.50;99.90;;;;;;4935276;29;20509;-68
2021/12/17 00:15:38;;;;;;;21.40;16.20;;;5.50;99.90;;;;;;4935091;29;20577;-68
2021/12/17 00:18:14;;;;;;;19.70;15.63;;;5.40;99.90;;;;;;4935296;29;20434;-68
2021/12/17 00:40:23;;;;;;;22.80;15.70;;;5.10;99.90;;;;;;4934973;29;20974;-68
2021/12/17 00:53:21;;;;;;;22.60;17.90;;;5.10;99.90;;;;;;4934914;29;20429;-68
2021/12/17 00:55:47;;;;;;;19.70;14.40;;;5.20;99.90;;;;;;4934426;29;20440;-68
2021/12/17 00:58:13;;;;;;;20.70;16.83;;;5.20;99.90;;;;;;4934734;29;21075;-68
2021/12/17 01:00:39;;;;;;;18.80;15.50;;;5.30;99.90;;;;;;4934727;29;20227;-68
2021/12/17 01:03:05;;;;;;;21.33;16.57;;;5.30;99.90;;;;;;4934732;29;20554;-68
2021/12/17 01:05:31;;;;;;;19.50;15.20;;;5.40;99.90;;;;;;4934486;29;20193;-67
2021/12/17 01:07:58;;;;;;;22.33;16.80;;;5.40;99.90;;;;;;4934632;29;20245;-68
2021/12/17 01:10:33;;;;;;;19.00;15.73;;;5.50;99.90;;;;;;4934376;29;21082;-68
2021/12/17 01:13:00;;;;;;;20.60;15.53;;;5.50;99.90;;;;;;4934600;29;20427;-68
2021/12/17 01:15:26;;;;;;;18.27;14.90;;;5.50;99.90;;;;;;4934185;29;20465;-68
2021/12/17 01:17:56;;;;;;;18.17;16.00;;;5.50;99.90;;;;;;4934533;29;20428;-67
2021/12/17 01:36:26;;;;;;;23.53;16.63;;;5.30;99.90;;;;;;4938139;29;20433;-67
2021/12/17 01:43:54;;;;;;;19.30;16.13;;;5.60;99.90;;;;;;4938223;29;20429;-68
2021/12/17 01:46:22;;;;;;;21.93;16.00;;;5.60;99.90;;;;;;4937820;29;20572;-68
2021/12/17 01:59:54;;;;;;;21.33;16.70;;;5.70;99.90;;;;;;4938107;29;20421;-68
2021/12/17 02:02:20;;;;;;;21.97;19.17;;;5.80;99.90;;;;;;4937832;29;20528;-67
2021/12/17 02:04:46;;;;;;;21.17;16.87;;;5.80;99.90;;;;;;4937723;29;20500;-68
2021/12/17 02:07:12;;;;;;;23.20;19.10;;;5.80;99.90;;;;;;4937439;29;20512;-68
2021/12/17 02:32:01;;;;;;;19.10;16.60;;;5.90;99.90;;;;;;4937205;29;20966;-67
2021/12/17 02:37:08;;;;;;;19.40;15.70;;;5.80;99.90;;;;;;4936267;29;20413;-68
2021/12/17 02:47:28;;;;;;;22.77;17.97;;;5.60;99.90;;;;;;4937035;29;20501;-68
2021/12/17 02:49:54;;;;;;;19.00;16.20;;;5.60;99.90;;;;;;4936902;29;20841;-68
2021/12/17 02:52:25;;;;;;;22.27;16.03;;;5.70;99.90;;;;;;4937100;29;20197;-67
2021/12/17 02:54:51;;;;;;;21.23;17.00;;;5.80;99.90;;;;;;4936987;29;20473;-67
2021/12/17 02:57:17;;;;;;;19.97;16.90;;;5.80;99.90;;;;;;4936609;29;20447;-67
2021/12/17 02:59:43;;;;;;;21.10;17.50;;;5.90;99.90;;;;;;4936873;29;20421;-67
2021/12/17 03:02:10;;;;;;;18.97;16.30;;;5.90;99.90;;;;;;4936669;29;20496;-68
2021/12/17 03:04:39;;;;;;;21.50;17.30;;;5.90;99.90;;;;;;4936645;29;20184;-68
2021/12/17 03:07:05;;;;;;;22.53;18.70;;;5.90;99.90;;;;;;4936394;29;20935;-68
2021/12/17 03:10:14;;;;;;;22.40;17.80;;;5.90;99.90;;;;;;4936601;29;20473;-68
2021/12/17 03:12:30;;;;;;;20.47;15.83;;;5.90;99.90;;;;;;4933461;29;20484;-68
2021/12/17 03:15:04;;;;;;;19.57;16.37;;;5.90;99.90;;;;;;4936410;29;20475;-68
2021/12/17 03:25:33;;;;;;;20.17;16.50;;;5.80;99.90;;;;;;4936047;29;20570;-68
2021/12/17 03:27:59;;;;;;;19.00;15.67;;;5.90;99.90;;;;;;4936391;29;20564;-67
2021/12/17 03:30:24;;;;;;;19.93;16.23;;;5.90;99.90;;;;;;4936208;29;20571;-67
2021/12/17 03:32:50;;;;;;;17.73;15.00;;;6.00;99.90;;;;;;4936539;29;20184;-68
2021/12/17 03:35:15;;;;;;;20.27;16.70;;;6.00;99.90;;;;;;4935714;29;20295;-68
2021/12/17 03:37:41;;;;;;;23.63;16.70;;;6.00;99.90;;;;;;4936072;29;20224;-68
2021/12/17 03:40:07;;;;;;;19.77;17.10;;;6.00;99.90;;;;;;4935938;29;20181;-68
2021/12/17 03:42:32;;;;;;;22.83;16.13;;;5.90;99.90;;;;;;4935991;29;20367;-67
2021/12/17 03:44:58;;;;;;;18.20;15.80;;;5.90;99.90;;;;;;4935906;29;20170;-68
2021/12/17 03:47:23;;;;;;;21.20;16.60;;;6.00;99.90;;;;;;4935459;29;20524;-68
2021/12/17 03:49:49;;;;;;;19.70;17.17;;;6.00;99.90;;;;;;4935918;29;20205;-68
2021/12/17 03:52:16;;;;;;;18.73;16.37;;;6.10;99.90;;;;;;4935718;29;20206;-68
2021/12/17 03:54:42;;;;;;;21.40;18.47;;;6.10;99.90;;;;;;4935578;29;20194;-68
2021/12/17 03:57:11;;;;;;;18.03;15.60;;;6.00;99.90;;;;;;4935410;29;20768;-68
2021/12/17 03:59:36;;;;;;;23.80;16.90;;;6.10;99.90;;;;;;4935710;29;20181;-68
2021/12/17 04:02:03;;;;;;;21.10;16.30;;;6.10;99.90;;;;;;4935574;29;20433;-68
2021/12/17 04:04:28;;;;;;;20.20;16.70;;;6.10;99.90;;;;;;4935561;29;20177;-68
2021/12/17 04:06:54;;;;;;;21.20;16.60;;;6.10;99.90;;;;;;4935272;29;20524;-68
2021/12/17 04:09:22;;;;;;;18.90;16.00;;;6.10;99.90;;;;;;4935945;29;20182;-67
2021/12/17 04:11:47;;;;;;;23.57;18.13;;;6.10;99.90;;;;;;4935873;29;20200;-68
2021/12/17 04:14:13;;;;;;;17.33;14.93;;;6.00;99.90;;;;;;4935394;29;20461;-67
2021/12/17 04:16:39;;;;;;;18.17;14.23;;;6.10;99.90;;;;;;4935193;29;20174;-67
2021/12/17 04:19:05;;;;;;;19.97;16.73;;;6.00;99.90;;;;;;4935305;29;20177;-67
2021/12/17 04:21:31;;;;;;;21.93;16.20;;;6.00;99.90;;;;;;4935159;29;20444;-68
2021/12/17 04:23:57;;;;;;;22.03;15.87;;;6.10;99.90;;;;;;4935213;29;20173;-68
2021/12/17 04:26:25;;;;;;;23.87;16.07;;;6.10;99.90;;;;;;4934886;29;20426;-67
2021/12/17 04:28:52;;;;;;;19.50;17.40;;;6.10;99.90;;;;;;4935202;29;20185;-67
2021/12/17 04:31:23;;;;;;;20.13;15.87;;;6.10;99.90;;;;;;4935083;29;20445;-67
2021/12/17 04:33:48;;;;;;;21.07;15.73;;;6.10;99.90;;;;;;4935020;29;20881;-67
2021/12/17 04:36:21;;;;;;;24.03;16.13;;;6.00;99.90;;;;;;4934664;29;20417;-67
2021/12/17 04:38:46;;;;;;;20.97;17.40;;;6.00;99.90;;;;;;4935137;29;20527;-67
2021/12/17 04:44:03;;;;;;;19.10;15.57;;;6.00;99.90;;;;;;4935154;29;20173;-67
2021/12/17 04:46:39;;;;;;;19.47;16.63;;;6.00;99.90;;;;;;4934676;29;20420;-67
2021/12/17 04:59:49;;;;;;;11.03;9.83;;;5.80;99.90;;;;;;4934316;28;20425;-68
2021/12/17 05:02:16;;;;;;;11.17;9.90;;;5.90;99.90;;;;;;4934586;29;20499;-67
2021/12/17 05:04:43;;;;;;;13.47;12.03;;;6.00;99.90;;;;;;4934617;29;20592;-67
2021/12/17 05:07:12;;;;;;;13.97;11.40;;;5.90;99.90;;;;;;4934473;29;20437;-68
2021/12/17 05:10:27;;;;;;;15.63;12.97;;;5.90;99.90;;;;;;4934608;29;20488;-68
2021/12/17 05:23:10;;;;;;;13.60;11.63;;;6.20;99.90;;;;;;4934614;29;20829;-67
2021/12/17 05:25:35;;;;;;;14.43;12.90;;;6.20;99.90;;;;;;4934156;29;20456;-68
2021/12/17 05:28:02;;;;;;;12.77;11.37;;;6.20;99.90;;;;;;4934490;29;20232;-68
2021/12/17 05:30:29;;;;;;;14.33;11.83;;;6.10;99.90;;;;;;4934232;29;20169;-67
2021/12/17 05:32:56;;;;;;;10.37;8.97;;;6.10;99.90;;;;;;4934454;29;20793;-68
2021/12/17 05:35:22;;;;;;;9.43;7.37;;;6.00;99.90;;;;;;4934078;29;20467;-67
2021/12/17 05:37:47;;;;;;;10.70;9.60;;;6.00;99.90;;;;;;4934392;29;20496;-67
2021/12/17 05:40:13;;;;;;;12.00;10.50;;;6.00;99.90;;;;;;4934202;29;20466;-67
2021/12/17 05:42:41;;;;;;;12.00;10.90;;;6.00;99.90;;;;;;4934414;29;20656;-67
2021/12/17 05:45:20;;;;;;;10.67;9.03;;;6.00;99.90;;;;;;4933949;29;20196;-68
2021/12/17 05:47:46;;;;;;;10.20;9.03;;;6.00;99.90;;;;;;4934545;29;20428;-67
2021/12/17 05:50:12;;;;;;;12.23;10.00;;;6.00;99.90;;;;;;4934126;29;20425;-68
2021/12/17 05:52:37;;;;;;;12.90;9.97;;;6.10;99.90;;;;;;4934265;29;20436;-68
2021/12/17 05:55:03;;;;;;;12.67;10.27;;;6.10;99.90;;;;;;4933864;29;20288;-68
2021/12/17 05:57:29;;;;;;;10.10;8.67;;;6.20;99.90;;;;;;4934107;29;20236;-68
2021/12/17 05:59:54;;;;;;;12.63;10.00;;;6.20;99.90;;;;;;4934227;29;20582;-67
2021/12/17 06:02:20;;;;;;;12.20;9.70;;;6.20;99.90;;;;;;4934108;29;20665;-67
2021/12/17 06:04:46;;;;;;;14.73;9.67;;;6.10;99.90;;;;;;4934065;29;20257;-67
2021/12/17 06:07:12;;;;;;;9.80;8.80;;;6.00;99.90;;;;;;4933860;29;20207;-67
2021/12/17 06:09:37;;;;;;;9.70;8.60;;;6.00;99.90;;;;;;4934810;29;20216;-68
2021/12/17 06:12:03;;;;;;;13.50;10.63;;;6.10;99.90;;;;;;4937361;29;20712;-68
2021/12/17 06:14:30;;;;;;;11.10;9.60;;;6.10;99.90;;;;;;4937598;29;20201;-67
2021/12/17 06:16:56;;;;;;;11.63;10.50;;;6.20;99.90;;;;;;4937247;29;20429;-67
2021/12/17 06:19:22;;;;;;;11.00;9.80;;;6.30;99.90;;;;;;4937639;29;20417;-67
2021/12/17 06:21:48;;;;;;;7.90;7.03;;;6.20;99.90;;;;;;4937572;29;20481;-68
2021/12/17 06:24:14;;;;;;;11.50;9.10;;;6.00;99.90;;;;;;4937624;29;20272;-67
2021/12/17 06:26:39;;;;;;;12.10;9.40;;;5.90;99.90;;;;;;4937106;29;20192;-67
2021/12/17 06:29:05;;;;;;;10.00;8.60;;;6.00;99.90;;;;;;4937354;29;20421;-68
2021/12/17 06:31:30;;;;;;;12.17;10.90;;;6.00;99.90;;;;;;4937218;29;20386;-68
2021/12/17 06:33:56;;;;;;;10.20;8.50;;;6.00;99.90;;;;;;4937112;29;20305;-67
2021/12/17 06:36:21;;;;;;;9.37;8.37;;;6.00;99.90;;;;;;4936938;29;20549;-68
2021/12/17 06:38:47;;;;;;;11.80;9.73;;;6.00;99.90;;;;;;4937235;29;20683;-68
2021/12/17 06:41:12;;;;;;;10.37;9.27;;;6.10;99.90;;;;;;4936939;29;20236;-68
2021/12/17 06:43:41;;;;;;;11.67;9.43;;;6.10;99.90;;;;;;4937154;29;20265;-68
2021/12/17 06:46:25;;;;;;;12.30;9.90;;;6.00;99.90;;;;;;4936725;29;20166;-68
2021/12/17 06:48:58;;;;;;;10.10;8.67;;;6.10;99.90;;;;;;4937457;29;20432;-68
2021/12/17 06:57:48;;;;;;;10.97;9.30;;;6.20;99.90;;;;;;4936984;29;20428;-67
2021/12/17 07:00:05;;;;;;;12.63;10.40;;;6.20;99.90;;;;;;4936670;29;20489;-67
2021/12/17 07:10:42;;;;;;;11.60;10.03;;;6.20;99.90;;;;;;4936436;29;20441;-67
2021/12/17 07:21:25;;;;;;;14.43;12.23;;;6.10;99.90;;;;;;4935901;29;20441;-67
2021/12/17 07:32:18;;;;;;;17.07;14.50;;;6.20;99.90;;;;;;4936406;29;20814;-67
2021/12/17 07:35:26;;;;;;;16.77;13.73;;;6.10;99.90;;;;;;4936082;29;20703;-67
2021/12/17 07:39:53;;;;;;;17.70;14.60;;;6.00;99.90;;;;;;4917101;29;20442;-67
2021/12/17 07:42:19;;;;;;;18.40;15.13;;;6.00;99.90;;;;;;4927159;29;21134;-67
2021/12/17 07:44:45;;;;;;;15.53;13.23;;;6.10;99.90;;;;;;4918900;29;20799;-67
2021/12/17 07:47:10;;;;;;;18.60;15.10;;;6.10;99.90;;;;;;4916538;29;20190;-67
2021/12/17 07:49:36;;;;;;;18.40;14.23;;;6.10;99.90;;;;;;4954620;29;20176;-67
2021/12/17 07:52:02;;;;;;;15.53;13.93;;;6.20;99.90;;;;;;4954827;28;20405;-66
2021/12/17 07:54:27;;;;;;;16.07;13.40;;;6.20;99.90;;;;;;4954960;28;20557;-67
2021/12/17 07:56:53;;;;;;;12.20;11.00;;;6.30;99.90;;;;;;4953447;29;20434;-67
2021/12/17 07:59:18;;;;;;;14.60;12.17;;;6.40;99.90;;;;;;4951923;29;20176;-67
2021/12/17 08:01:44;;;;;;;14.80;11.87;;;6.40;99.90;;;;;;4939544;29;20205;-67
2021/12/17 08:04:10;;;;;;;12.67;11.00;;;6.50;99.90;;;;;;4928296;29;20178;-67
2021/12/17 08:06:36;;;;;;;16.40;13.67;;;6.50;99.90;;;;;;4932595;29;20708;-67
2021/12/17 08:09:04;;;;;;;12.47;10.73;;;6.50;99.90;;;;;;4942828;29;20208;-66
2021/12/17 08:11:31;;;;;;;12.03;10.77;;;6.60;99.90;;;;;;4932160;29;20867;-67
2021/12/17 08:13:58;;;;;;;13.70;12.27;;;6.70;99.90;;;;;;4932188;29;20460;-67
2021/12/17 08:32:06;;;;;;;9.07;8.10;;;6.90;99.90;;;;;;4932152;29;20453;-67
2021/12/17 08:34:33;;;;;;;11.13;8.77;;;6.90;99.90;;;;;;4931914;29;21022;-67
2021/12/17 08:36:58;;;;;;;9.80;7.17;;;7.00;99.90;;;;;;4930407;29;20428;-68
2021/12/17 08:39:31;;;;;;;9.27;8.37;;;6.90;99.90;;;;;;4930637;28;20434;-67
2021/12/17 08:41:57;;;;;;;8.93;8.03;;;6.90;99.90;;;;;;4931731;29;20216;-67
2021/12/17 08:44:23;;;;;;;8.67;7.70;;;7.20;99.90;;;;;;4931605;29;20873;-67
2021/12/17 08:46:49;;;;;;;7.43;6.73;;;7.20;99.90;;;;;;4931518;29;20441;-68
2021/12/17 08:49:15;;;;;;;9.47;8.00;;;8.00;99.90;;;;;;4928347;29;20460;-67
2021/12/17 08:51:43;;;;;;;7.60;6.90;;;9.20;99.90;;;;;;4931954;29;20925;-68
2021/12/17 08:54:10;;;;;;;7.83;7.03;;;11.00;99.90;;;;;;4931608;29;20468;-67
2021/12/17 08:56:42;;;;;;;8.40;7.47;;;12.40;99.90;;;;;;4931114;29;20491;-68
2021/12/17 08:59:09;;;;;;;8.13;7.40;;;12.60;99.90;;;;;;4930661;29;20441;-68
2021/12/17 09:01:35;;;;;;;8.53;7.73;;;13.10;99.90;;;;;;4930123;29;20452;-68
2021/12/17 09:04:02;;;;;;;7.53;6.80;;;14.20;99.90;;;;;;4931615;29;20429;-68
2021/12/17 09:06:28;;;;;;;7.33;6.73;;;15.50;99.90;;;;;;4931045;29;20536;-68
2021/12/17 09:08:55;;;;;;;7.57;6.87;;;15.80;99.90;;;;;;4938223;29;21092;-67
2021/12/17 09:11:30;;;;;;;6.90;6.40;;;15.70;99.90;;;;;;4950272;28;20851;-67
2021/12/17 09:13:59;;;;;;;7.23;6.63;;;16.40;99.10;;;;;;4913017;29;20461;-68
2021/12/17 09:16:25;;;;;;;8.57;6.70;;;16.90;96.90;;;;;;4915164;29;20423;-68
2021/12/17 09:18:54;;;;;;;13.60;7.83;;;17.50;96.20;;;;;;4922603;29;20425;-67
2021/12/17 09:21:19;;;;;;;7.10;6.40;;;17.90;93.40;;;;;;4930683;29;20979;-68
2021/12/17 09:23:46;;;;;;;8.63;7.83;;;17.80;93.40;;;;;;4915523;29;20457;-68
2021/12/17 09:26:14;;;;;;;9.60;8.70;;;17.20;92.70;;;;;;4915604;29;20205;-68
2021/12/17 09:28:40;;;;;;;7.17;6.57;;;17.60;93.50;;;;;;4933742;29;20898;-68
2021/12/17 09:31:11;;;;;;;7.00;6.50;;;16.90;92.50;;;;;;4953732;28;20444;-68
2021/12/17 09:33:37;;;;;;;7.50;6.90;;;16.60;94.40;;;;;;4953614;28;20203;-68
2021/12/17 09:36:04;;;;;;;6.60;6.10;;;16.80;93.10;;;;;;4953466;28;20421;-68
2021/12/17 09:38:30;;;;;;;7.83;7.23;;;17.30;92.80;;;;;;4937938;28;20434;-68
2021/12/17 09:40:56;;;;;;;7.43;6.83;;;18.30;91.20;;;;;;4934386;29;20492;-68
2021/12/17 09:43:22;;;;;;;6.57;6.07;;;19.70;89.00;;;;;;4921429;29;20434;-68
2021/12/17 09:45:47;;;;;;;7.80;7.00;;;20.20;84.70;;;;;;4917886;29;20426;-68
2021/12/17 09:48:14;;;;;;;7.00;6.40;;;20.80;79.80;;;;;;4930219;29;20659;-68
2021/12/17 09:50:40;;;;;;;7.97;7.30;;;21.30;77.40;;;;;;4957326;28;20193;-68
2021/12/17 09:53:05;;;;;;;7.73;7.13;;;21.70;73.50;;;;;;4957315;28;20864;-69
2021/12/17 09:55:31;;;;;;;7.77;7.17;;;22.60;69.80;;;;;;4956936;29;20500;-68
2021/12/17 09:57:57;;;;;;;7.37;6.83;;;23.40;65.40;;;;;;4947539;29;20173;-68
2021/12/17 10:00:26;;;;;;;7.20;6.70;;;22.30;62.30;;;;;;4924772;29;20656;-69
2021/12/17 10:02:53;;;;;;;9.57;8.77;;;22.60;63.30;;;;;;4919369;29;20257;-68
2021/12/17 10:05:25;;;;;;;7.27;6.77;;;23.00;62.30;;;;;;4918600;29;20764;-70
2021/12/17 10:07:59;;;;;;;7.70;7.10;;;23.70;59.30;;;;;;4921592;29;20456;-68
2021/12/17 10:10:37;;;;;;;7.77;7.17;;;23.40;59.50;;;;;;4937730;29;20448;-68
2021/12/17 10:13:28;;;;;;;10.60;7.50;;;24.50;57.70;;;;;;4930310;29;20437;-68
2021/12/17 10:16:00;;;;;;;8.00;7.30;;;24.90;55.70;;;;;;4957147;28;20484;-68
2021/12/17 10:18:38;;;;;;;7.50;6.90;;;25.20;54.60;;;;;;4929428;29;20424;-68
2021/12/17 10:21:11;;;;;;;7.10;6.60;;;24.70;53.70;;;;;;4928352;29;20440;-68
2021/12/17 10:23:41;;;;;;;8.23;7.53;;;24.60;54.30;;;;;;4926174;29;20465;-68
2021/12/17 10:26:14;;;;;;;7.60;7.03;;;24.70;53.80;;;;;;4918273;29;20418;-68
2021/12/17 10:29:04;;;;;;;7.30;6.80;;;25.40;53.20;;;;;;4927021;29;20530;-68
2021/12/17 10:31:31;;;;;;;7.80;7.10;;;25.30;52.10;;;;;;4937133;29;20463;-68
2021/12/17 10:34:03;;;;;;;8.47;7.50;;;25.90;51.00;;;;;;4937349;29;20967;-67
2021/12/17 10:36:43;;;;;;;8.27;7.57;;;26.30;49.80;;;;;;4937229;29;20639;-68
2021/12/17 10:39:25;;;;;;;7.70;7.20;;;26.20;49.20;;;;;;4935657;29;20512;-68
2021/12/17 10:41:51;;;;;;;8.30;7.57;;;27.80;48.20;;;;;;4937275;29;20437;-68
2021/12/17 10:44:20;;;;;;;8.43;7.83;;;27.20;48.00;;;;;;4937420;29;20433;-68
2021/12/17 10:47:29;;;;;;;8.07;7.47;;;26.50;47.60;;;;;;4936923;29;20437;-69
2021/12/17 10:49:57;;;;;;;8.23;7.53;;;26.40;47.90;;;;;;4954282;29;20428;-68
2021/12/17 10:52:38;;;;;;;9.20;8.50;;;25.70;47.50;;;;;;4956263;28;20985;-68
2021/12/17 10:55:14;;;;;;;7.60;7.10;;;25.00;48.80;;;;;;4955902;28;20470;-67
2021/12/17 10:57:39;;;;;;;8.53;7.83;;;25.60;48.60;;;;;;4945424;28;20429;-68
2021/12/17 11:00:07;;;;;;;8.93;8.23;;;26.40;47.70;;;;;;4936928;29;20818;-68
2021/12/17 11:02:33;;;;;;;8.20;7.37;;;25.60;47.20;;;;;;4936917;29;20198;-67
2021/12/17 11:05:10;;;;;;;8.10;7.30;;;25.30;48.10;;;;;;4936771;29;20421;-67
2021/12/17 11:07:38;;;;;;;7.33;6.63;;;25.10;48.70;;;;;;4935438;29;20923;-67
2021/12/17 11:10:04;;;;;;;6.93;6.43;;;25.00;49.90;;;;;;4936214;29;20516;-67
2021/12/17 11:12:31;;;;;;;7.77;7.17;;;23.90;49.00;;;;;;4936939;29;20464;-67
2021/12/17 11:15:09;;;;;;;8.00;7.40;;;23.50;50.20;;;;;;4936655;29;20548;-67
2021/12/17 11:17:35;;;;;;;9.30;8.57;;;23.90;49.60;;;;;;4937548;29;20431;-67
2021/12/17 11:20:24;;;;;;;8.07;7.37;;;23.20;50.60;;;;;;4955248;29;20580;-67
2021/12/17 11:22:51;;;;;;;8.43;7.80;;;23.60;50.10;;;;;;4955770;29;20413;-67
2021/12/17 11:25:19;;;;;;;8.77;7.97;;;23.10;50.00;;;;;;4955333;29;20491;-67
2021/12/17 11:27:45;;;;;;;9.00;8.37;;;23.80;50.60;;;;;;4946066;29;20435;-67
2021/12/17 11:30:16;;;;;;;9.77;9.07;;;23.60;49.70;;;;;;4928042;29;20429;-66
2021/12/17 11:32:43;;;;;;;10.40;9.60;;;23.80;50.40;;;;;;4936394;29;20588;-66
2021/12/17 11:35:09;;;;;;;9.83;9.03;;;24.70;49.30;;;;;;4935884;29;20461;-66
2021/12/17 11:37:35;;;;;;;11.00;9.93;;;24.10;49.20;;;;;;4933705;29;20434;-67
2021/12/17 11:40:07;;;;;;;10.10;9.27;;;22.80;51.10;;;;;;4935482;29;20928;-66
2021/12/17 11:43:14;;;;;;;10.43;9.57;;;23.60;50.70;;;;;;4936041;29;20537;-68
2021/12/17 11:45:41;;;;;;;9.27;8.50;;;24.80;49.30;;;;;;4935868;29;20428;-67
2021/12/17 11:48:34;;;;;;;9.33;8.53;;;24.50;48.40;;;;;;4934727;29;20923;-66
2021/12/17 11:51:11;;;;;;;10.37;9.50;;;23.90;49.80;;;;;;4935718;29;20545;-66
2021/12/17 11:53:52;;;;;;;9.80;9.00;;;22.80;50.50;;;;;;4935835;29;20807;-66
2021/12/17 11:56:42;;;;;;;11.63;10.63;;;21.80;52.10;;;;;;4920543;29;22377;-66
2021/12/17 11:59:29;;;;;;;11.10;9.90;;;21.50;53.40;;;;;;4927473;29;20425;-66
2021/12/17 12:02:20;;;;;;;10.13;9.23;;;21.90;52.70;;;;;;4954344;28;20464;-66
2021/12/17 12:04:57;;;;;;;9.70;8.90;;;22.40;52.20;;;;;;4931004;28;20445;-66
2021/12/17 12:07:25;;;;;;;9.10;8.30;;;24.10;51.00;;;;;;4908295;29;20812;-66
2021/12/17 12:10:19;;;;;;;10.27;9.37;;;25.40;49.20;;;;;;4932282;29;20433;-66
2021/12/17 12:12:45;;;;;;;9.10;8.50;;;26.60;47.10;;;;;;4935485;29;20454;-67
2021/12/17 12:15:20;;;;;;;8.70;8.00;;;25.60;46.90;;;;;;4926406;29;20504;-67
2021/12/17 12:18:02;;;;;;;9.47;8.67;;;25.20;47.40;;;;;;4933338;29;20182;-66
2021/12/17 12:20:50;;;;;;;9.43;8.63;;;25.80;47.10;;;;;;4932332;29;20436;-66
2021/12/17 12:23:31;;;;;;;9.10;8.37;;;25.70;46.60;;;;;;4913467;29;20430;-66
2021/12/17 12:26:08;;;;;;;8.07;7.47;;;25.10;48.00;;;;;;4917164;29;20993;-66
2021/12/17 12:28:45;;;;;;;9.37;8.67;;;25.10;47.40;;;;;;4932457;29;20564;-66
2021/12/17 12:31:17;;;;;;;9.40;8.60;;;25.10;47.80;;;;;;4932264;29;20456;-66
2021/12/17 12:34:00;;;;;;;9.00;8.30;;;26.00;46.90;;;;;;4939868;29;20824;-66
2021/12/17 12:36:47;;;;;;;8.90;8.20;;;26.40;46.40;;;;;;4947571;28;20428;-66
2021/12/17 12:39:15;;;;;;;9.67;8.80;;;26.30;45.90;;;;;;4951450;29;20425;-66
2021/12/17 12:41:44;;;;;;;8.80;8.17;;;26.70;45.60;;;;;;4950885;28;20930;-66
2021/12/17 12:44:09;;;;;;;8.87;8.10;;;27.00;45.40;;;;;;4951140;28;20424;-66
2021/12/17 12:46:55;;;;;;;10.03;9.23;;;28.00;44.70;;;;;;4947560;29;20427;-66
2021/12/17 12:49:45;;;;;;;8.67;7.90;;;28.70;43.60;;;;;;4951310;28;20173;-66
2021/12/17 12:52:24;;;;;;;9.07;8.27;;;28.10;44.30;;;;;;4950935;28;20458;-66
2021/12/17 12:54:52;;;;;;;8.73;8.03;;;28.80;43.70;;;;;;4951017;29;20969;-66
2021/12/17 12:57:30;;;;;;;9.10;8.50;;;29.60;42.60;;;;;;4929468;29;20432;-66
2021/12/17 12:59:57;;;;;;;8.47;7.77;;;30.00;42.00;;;;;;4932117;29;20418;-66
2021/12/17 13:02:27;;;;;;;8.80;8.07;;;30.30;41.50;;;;;;4931737;29;20463;-66
2021/12/17 13:04:55;;;;;;;8.30;7.70;;;29.90;40.90;;;;;;4931699;29;20950;-66
2021/12/17 13:07:54;;;;;;;9.43;7.50;;;29.50;41.40;;;;;;4928264;29;20440;-66
2021/12/17 13:10:27;;;;;;;8.10;7.50;;;27.50;42.10;;;;;;4939441;28;20528;-66
2021/12/17 13:13:00;;;;;;;7.60;7.10;;;25.00;44.90;;;;;;4950931;28;21209;-66
2021/12/17 13:15:49;;;;;;;7.90;7.30;;;23.50;47.10;;;;;;4946148;28;20527;-66
2021/12/17 13:23:22;;;;;;;8.70;8.00;;;23.80;48.30;;;;;;4950612;29;20417;-66
2021/12/17 13:26:10;;;;;;;8.00;7.40;;;24.80;47.40;;;;;;4947176;28;20435;-66
2021/12/17 13:29:11;;;;;;;8.33;7.57;;;24.60;47.10;;;;;;4950770;28;20440;-66
2021/12/17 13:32:02;;;;;;;10.47;9.63;;;22.90;48.70;;;;;;4950216;28;20510;-66
2021/12/17 13:34:40;;;;;;;8.93;8.13;;;20.70;52.00;;;;;;4950498;29;20467;-66
2021/12/17 13:37:21;;;;;;;8.93;8.23;;;18.60;55.40;;;;;;4930092;28;20433;-66
2021/12/17 13:39:46;;;;;;;9.67;8.87;;;17.10;58.70;;;;;;4922979;29;20432;-66
2021/12/17 13:42:27;;;;;;;8.57;7.90;;;16.80;60.00;;;;;;4918580;29;20964;-66
2021/12/17 13:44:58;;;;;;;10.30;9.30;;;16.00;62.40;;;;;;4912500;29;20289;-66
2021/12/17 13:47:40;;;;;;;9.17;8.37;;;15.10;66.30;;;;;;4943919;29;20969;-66
2021/12/17 13:50:24;;;;;;;9.67;8.67;;;14.20;72.10;;;;;;4950465;28;20529;-66
2021/12/17 13:52:55;;;;;;;9.50;8.67;;;13.50;76.80;;;;;;4950323;29;20451;-66
2021/12/17 13:55:29;;;;;;;9.67;8.70;;;13.00;80.30;;;;;;4947401;28;20464;-66
2021/12/17 13:57:57;;;;;;;10.00;9.10;;;12.60;84.50;;;;;;4950026;28;20994;-66
2021/12/17 14:00:39;;;;;;;9.70;8.80;;;12.40;88.70;;;;;;4912481;29;20529;-66
2021/12/17 14:03:08;;;;;;;9.67;8.77;;;12.00;91.40;;;;;;4911584;29;20471;-66
2021/12/17 14:05:41;;;;;;;9.57;8.57;;;11.80;93.60;;;;;;4912265;29;20810;-67
2021/12/17 14:08:11;;;;;;;8.90;7.97;;;11.60;95.60;;;;;;4931191;29;20441;-67
2021/12/17 14:10:38;;;;;;;9.50;7.97;;;11.40;97.70;;;;;;4942619;28;20583;-67
2021/12/17 14:13:13;;;;;;;9.57;8.53;;;11.00;99.90;;;;;;4950165;28;20455;-67
2021/12/17 14:15:43;;;;;;;9.07;8.13;;;10.70;99.90;;;;;;4915301;29;21167;-67
2021/12/17 14:18:09;;;;;;;10.10;8.47;;;10.60;99.90;;;;;;4953215;28;20793;-67
2021/12/17 14:20:42;;;;;;;11.20;8.23;;;10.50;99.90;;;;;;4953084;28;20455;-67
2021/12/17 14:23:21;;;;;;;13.23;9.57;;;10.30;99.90;;;;;;4953381;29;20421;-67
2021/12/17 14:25:57;;;;;;;11.00;9.90;;;10.10;99.90;;;;;;4942166;28;20817;-67
2021/12/17 14:28:31;;;;;;;11.00;9.90;;;10.00;99.90;;;;;;4934515;29;20425;-67
2021/12/17 14:31:01;;;;;;;12.57;9.87;;;10.00;99.90;;;;;;4935291;29;20437;-67
2021/12/17 14:33:36;;;;;;;11.60;9.60;;;10.00;99.90;;;;;;4937454;29;20775;-67
2021/12/17 14:36:11;;;;;;;12.73;11.30;;;10.00;99.90;;;;;;4931105;29;20968;-67
2021/12/17 14:38:40;;;;;;;11.83;10.70;;;9.90;99.90;;;;;;4937365;29;20417;-67
2021/12/17 14:41:10;;;;;;;12.03;10.00;;;9.60;99.90;;;;;;4937407;29;21002;-67
2021/12/17 14:43:50;;;;;;;13.60;12.20;;;9.40;99.90;;;;;;4937444;29;20467;-67
2021/12/17 14:46:21;;;;;;;12.27;10.77;;;9.10;99.90;;;;;;4937898;29;20424;-67
2021/12/17 14:49:11;;;;;;;12.53;11.23;;;9.10;99.90;;;;;;4955099;28;20447;-67
2021/12/17 14:57:25;;;;;;;14.23;11.30;;;9.00;99.90;;;;;;4950119;29;20483;-67
2021/12/17 15:05:25;;;;;;;13.43;10.97;;;8.90;99.90;;;;;;4952863;28;20930;-67
2021/12/17 15:07:52;;;;;;;13.93;11.40;;;8.80;99.90;;;;;;4953888;28;20429;-67
2021/12/17 15:10:19;;;;;;;14.30;11.10;;;8.80;99.90;;;;;;4952440;28;20524;-67
2021/12/17 15:12:46;;;;;;;14.37;12.80;;;8.70;99.90;;;;;;4936184;29;20437;-67
2021/12/17 15:15:24;;;;;;;18.00;12.30;;;8.60;99.90;;;;;;4925729;29;20513;-67
2021/12/17 15:17:52;;;;;;;13.60;11.53;;;8.50;99.90;;;;;;4927487;29;20437;-67
2021/12/17 15:20:24;;;;;;;13.00;11.27;;;8.40;99.90;;;;;;4931506;29;20429;-67
2021/12/17 15:22:50;;;;;;;14.67;11.37;;;8.50;99.90;;;;;;4933702;29;20468;-66
2021/12/17 15:25:17;;;;;;;13.93;11.57;;;8.40;99.90;;;;;;4945977;29;20809;-67
2021/12/17 15:27:43;;;;;;;13.67;11.83;;;8.50;99.90;;;;;;4929937;29;20448;-67
2021/12/17 15:30:20;;;;;;;12.50;11.30;;;8.40;99.90;;;;;;4932320;29;20429;-67
2021/12/17 15:32:46;;;;;;;12.47;11.03;;;8.30;99.90;;;;;;4933559;29;20436;-67
2021/12/17 15:35:15;;;;;;;12.40;11.20;;;8.30;99.90;;;;;;4931207;29;20465;-67
2021/12/17 15:37:40;;;;;;;13.57;12.10;;;8.40;99.90;;;;;;4930360;29;20484;-67
2021/12/17 15:40:08;;;;;;;13.70;12.43;;;8.40;99.90;;;;;;4933307;29;20418;-67
2021/12/17 15:42:33;;;;;;;14.07;12.63;;;8.40;99.90;;;;;;4932650;29;20277;-67
2021/12/17 15:44:59;;;;;;;14.13;12.60;;;8.40;99.90;;;;;;4932832;29;20513;-67
2021/12/17 15:47:24;;;;;;;12.53;11.23;;;8.40;99.90;;;;;;4927231;29;20189;-67
2021/12/17 15:49:50;;;;;;;14.67;11.70;;;8.40;99.90;;;;;;4933000;29;20548;-67
2021/12/17 15:52:16;;;;;;;13.23;11.83;;;8.40;99.90;;;;;;4933380;29;20197;-67
2021/12/17 15:54:41;;;;;;;14.47;12.03;;;8.40;99.90;;;;;;4932610;29;20706;-67
2021/12/17 15:57:08;;;;;;;13.20;11.90;;;8.40;99.90;;;;;;4924127;29;20525;-67
2021/12/17 15:59:41;;;;;;;14.90;12.27;;;8.30;99.90;;;;;;4916253;29;20238;-67
2021/12/17 16:02:08;;;;;;;14.80;12.47;;;8.30;99.90;;;;;;4950408;28;20819;-66
2021/12/17 16:04:38;;;;;;;15.50;13.80;;;8.10;99.90;;;;;;4951345;28;20436;-66
2021/12/17 16:07:04;;;;;;;15.17;12.73;;;8.00;99.90;;;;;;4947404;28;20187;-66
2021/12/17 16:12:04;;;;;;;14.70;13.03;;;8.00;99.90;;;;;;4954831;28;20261;-66
2021/12/17 16:18:09;;;;;;;14.60;13.10;;;7.90;99.90;;;;;;4931939;29;20435;-68